sensor_id;sensor_type;location;lat;lon;timestamp;temperature;humidity
3281;DHT22;1652;51.318;6.202;2023-07-20T00:02:24;17.30;99.90
3281;DHT22;1652;51.318;6.202;2023-07-20T00:04:51;17.10;99.90
3281;DHT22;1652;51.318;6.202;2023-07-20T00:07:18;17.00;99.90
3281;DHT22;1652;51.318;6.202;2023-07-20T00:09:45;16.90;99.90
3281;DHT22;1652;51.318;6.202;2023-07-20T00:12:11;16.80;99.90
3281;DHT22;1652;51.318;6.202;2023-07-20T00:14:38;16.70;99.90
3281;DHT22;1652;51.318;6.202;2023-07-20T00:17:06;16.70;99.90
3281;DHT22;1652;51.318;6.202;2023-07-20T00:19:32;16.70;99.90
3281;DHT22;1652;51.318;6.202;2023-07-20T00:22:13;16.60;99.90
3281;DHT22;1652;51.318;6.202;2023-07-20T00:24:40;16.70;99.90
3281;DHT22;1652;51.318;6.202;2023-07-20T00:27:07;16.70;99.90
3281;DHT22;1652;51.318;6.202;2023-07-20T00:29:34;16.60;99.90
3281;DHT22;1652;51.318;6.202;2023-07-20T00:32:02;16.60;99.90
3281;DHT22;1652;51.318;6.202;2023-07-20T00:34:31;16.50;99.90
3281;DHT22;1652;51.318;6.202;2023-07-20T00:36:59;16.40;99.90
3281;DHT22;1652;51.318;6.202;2023-07-20T00:39:25;16.40;99.90
3281;DHT22;1652;51.318;6.202;2023-07-20T00:41:52;16.30;99.90
3281;DHT22;1652;51.318;6.202;2023-07-20T00:44:19;16.40;99.90
3281;DHT22;1652;51.318;6.202;2023-07-20T00:46:46;16.40;99.90
3281;DHT22;1652;51.318;6.202;2023-07-20T00:49:14;16.40;99.90
3281;DHT22;1652;51.318;6.202;2023-07-20T00:51:42;16.40;99.90
3281;DHT22;1652;51.318;6.202;2023-07-20T00:54:09;16.30;99.90
3281;DHT22;1652;51.318;6.202;2023-07-20T00:56:36;16.30;99.90
3281;DHT22;1652;51.318;6.202;2023-07-20T00:59:03;16.20;99.90
3281;DHT22;1652;51.318;6.202;2023-07-20T01:01:31;16.30;99.90
3281;DHT22;1652;51.318;6.202;2023-07-20T01:03:58;16.30;99.90
3281;DHT22;1652;51.318;6.202;2023-07-20T01:07:02;16.30;99.90
3281;DHT22;1652;51.318;6.202;2023-07-20T01:09:28;16.40;99.90
3281;DHT22;1652;51.318;6.202;2023-07-20T01:12:07;16.40;99.90
3281;DHT22;1652;51.318;6.202;2023-07-20T01:14:34;16.30;99.90
3281;DHT22;1652;51.318;6.202;2023-07-20T01:17:02;16.20;99.90
3281;DHT22;1652;51.318;6.202;2023-07-20T01:19:29;16.20;99.90
3281;DHT22;1652;51.318;6.202;2023-07-20T01:22:13;16.00;99.90
3281;DHT22;1652;51.318;6.202;2023-07-20T01:30:25;15.90;99.90
3281;DHT22;1652;51.318;6.202;2023-07-20T01:32:55;15.90;99.90
3281;DHT22;1652;51.318;6.202;2023-07-20T01:35:27;15.80;99.90
3281;DHT22;1652;51.318;6.202;2023-07-20T01:37:55;15.80;99.90
3281;DHT22;1652;51.318;6.202;2023-07-20T01:40:22;15.80;99.90
3281;DHT22;1652;51.318;6.202;2023-07-20T01:42:52;15.80;99.90
3281;DHT22;1652;51.318;6.202;2023-07-20T01:45:20;15.70;99.90
3281;DHT22;1652;51.318;6.202;2023-07-20T01:47:47;15.80;99.90
3281;DHT22;1652;51.318;6.202;2023-07-20T01:50:14;15.90;99.90
3281;DHT22;1652;51.318;6.202;2023-07-20T01:52:41;15.90;99.90
3281;DHT22;1652;51.318;6.202;2023-07-20T01:55:08;16.00;99.90
3281;DHT22;1652;51.318;6.202;2023-07-20T01:57:35;16.10;99.90
3281;DHT22;1652;51.318;6.202;2023-07-20T02:00:02;16.10;99.90
3281;DHT22;1652;51.318;6.202;2023-07-20T02:02:29;16.20;99.90
3281;DHT22;1652;51.318;6.202;2023-07-20T02:04:56;16.10;99.90
3281;DHT22;1652;51.318;6.202;2023-07-20T02:07:23;16.10;99.90
3281;DHT22;1652;51.318;6.202;2023-07-20T02:09:50;16.20;99.90
3281;DHT22;1652;51.318;6.202;2023-07-20T02:12:17;16.20;99.90
3281;DHT22;1652;51.318;6.202;2023-07-20T02:14:44;16.30;99.90
3281;DHT22;1652;51.318;6.202;2023-07-20T02:17:11;16.20;99.90
3281;DHT22;1652;51.318;6.202;2023-07-20T02:22:03;16.30;99.90
3281;DHT22;1652;51.318;6.202;2023-07-20T02:24:30;16.20;99.90
3281;DHT22;1652;51.318;6.202;2023-07-20T02:26:57;16.10;99.90
3281;DHT22;1652;51.318;6.202;2023-07-20T02:29:24;16.10;99.90
3281;DHT22;1652;51.318;6.202;2023-07-20T02:31:51;16.00;99.90
3281;DHT22;1652;51.318;6.202;2023-07-20T02:34:18;16.00;99.90
3281;DHT22;1652;51.318;6.202;2023-07-20T02:36:45;16.00;99.90
3281;DHT22;1652;51.318;6.202;2023-07-20T02:39:13;15.90;99.90
3281;DHT22;1652;51.318;6.202;2023-07-20T02:41:39;15.80;99.90
3281;DHT22;1652;51.318;6.202;2023-07-20T02:44:07;15.90;99.90
3281;DHT22;1652;51.318;6.202;2023-07-20T02:46:34;16.00;99.90
3281;DHT22;1652;51.318;6.202;2023-07-20T02:49:02;16.00;99.90
3281;DHT22;1652;51.318;6.202;2023-07-20T02:51:28;16.00;99.90
3281;DHT22;1652;51.318;6.202;2023-07-20T02:53:55;16.00;99.90
3281;DHT22;1652;51.318;6.202;2023-07-20T02:56:22;16.10;99.90
3281;DHT22;1652;51.318;6.202;2023-07-20T02:58:50;16.20;99.90
3281;DHT22;1652;51.318;6.202;2023-07-20T03:01:17;16.20;99.90
3281;DHT22;1652;51.318;6.202;2023-07-20T03:03:44;16.30;99.90
3281;DHT22;1652;51.318;6.202;2023-07-20T03:06:15;16.30;99.90
3281;DHT22;1652;51.318;6.202;2023-07-20T03:08:43;16.30;99.90
3281;DHT22;1652;51.318;6.202;2023-07-20T03:11:15;16.30;99.90
3281;DHT22;1652;51.318;6.202;2023-07-20T03:13:43;16.40;99.90
3281;DHT22;1652;51.318;6.202;2023-07-20T03:16:11;16.40;99.90
3281;DHT22;1652;51.318;6.202;2023-07-20T03:18:39;16.30;99.90
3281;DHT22;1652;51.318;6.202;2023-07-20T03:21:08;16.40;99.90
3281;DHT22;1652;51.318;6.202;2023-07-20T03:23:35;16.50;99.90
3281;DHT22;1652;51.318;6.202;2023-07-20T03:26:04;16.40;99.90
3281;DHT22;1652;51.318;6.202;2023-07-20T03:28:31;16.40;99.90
3281;DHT22;1652;51.318;6.202;2023-07-20T03:30:58;16.30;99.90
3281;DHT22;1652;51.318;6.202;2023-07-20T03:33:27;16.40;99.90
3281;DHT22;1652;51.318;6.202;2023-07-20T03:35:54;16.30;99.90
3281;DHT22;1652;51.318;6.202;2023-07-20T03:38:22;16.30;99.90
3281;DHT22;1652;51.318;6.202;2023-07-20T03:40:57;16.30;99.90
3281;DHT22;1652;51.318;6.202;2023-07-20T03:43:25;16.20;99.90
3281;DHT22;1652;51.318;6.202;2023-07-20T03:45:52;16.20;99.90
3281;DHT22;1652;51.318;6.202;2023-07-20T03:48:24;16.20;99.90
3281;DHT22;1652;51.318;6.202;2023-07-20T03:50:52;16.20;99.90
3281;DHT22;1652;51.318;6.202;2023-07-20T03:53:20;16.20;99.90
3281;DHT22;1652;51.318;6.202;2023-07-20T03:55:48;16.30;99.90
3281;DHT22;1652;51.318;6.202;2023-07-20T03:58:16;16.30;99.90
3281;DHT22;1652;51.318;6.202;2023-07-20T04:00:45;16.40;99.90
3281;DHT22;1652;51.318;6.202;2023-07-20T04:03:13;16.40;99.90
3281;DHT22;1652;51.318;6.202;2023-07-20T04:05:40;16.40;99.90
3281;DHT22;1652;51.318;6.202;2023-07-20T04:08:07;16.40;99.90
3281;DHT22;1652;51.318;6.202;2023-07-20T04:10:34;16.50;99.90
3281;DHT22;1652;51.318;6.202;2023-07-20T04:13:01;16.50;99.90
3281;DHT22;1652;51.318;6.202;2023-07-20T04:15:28;16.50;99.90
3281;DHT22;1652;51.318;6.202;2023-07-20T04:17:55;16.50;99.90
3281;DHT22;1652;51.318;6.202;2023-07-20T04:20:23;16.50;99.90
3281;DHT22;1652;51.318;6.202;2023-07-20T04:22:50;16.50;99.90
3281;DHT22;1652;51.318;6.202;2023-07-20T04:25:18;16.60;99.90
3281;DHT22;1652;51.318;6.202;2023-07-20T04:27:45;16.60;99.90
3281;DHT22;1652;51.318;6.202;2023-07-20T04:30:12;16.60;99.90
3281;DHT22;1652;51.318;6.202;2023-07-20T04:32:39;16.60;99.90
3281;DHT22;1652;51.318;6.202;2023-07-20T04:38:04;16.60;99.90
3281;DHT22;1652;51.318;6.202;2023-07-20T04:40:31;16.60;99.90
3281;DHT22;1652;51.318;6.202;2023-07-20T04:42:58;16.60;99.90
3281;DHT22;1652;51.318;6.202;2023-07-20T04:45:25;16.70;99.90
3281;DHT22;1652;51.318;6.202;2023-07-20T04:47:52;16.80;99.90
3281;DHT22;1652;51.318;6.202;2023-07-20T04:50:19;16.80;99.90
3281;DHT22;1652;51.318;6.202;2023-07-20T04:52:46;16.80;99.90
3281;DHT22;1652;51.318;6.202;2023-07-20T04:55:14;16.90;99.90
3281;DHT22;1652;51.318;6.202;2023-07-20T04:57:41;16.90;99.90
3281;DHT22;1652;51.318;6.202;2023-07-20T05:00:09;17.00;99.90
3281;DHT22;1652;51.318;6.202;2023-07-20T05:02:38;17.00;99.90
3281;DHT22;1652;51.318;6.202;2023-07-20T05:05:05;17.10;99.90
3281;DHT22;1652;51.318;6.202;2023-07-20T05:07:32;17.00;99.90
3281;DHT22;1652;51.318;6.202;2023-07-20T05:09:59;17.10;99.90
3281;DHT22;1652;51.318;6.202;2023-07-20T05:12:26;17.20;99.90
3281;DHT22;1652;51.318;6.202;2023-07-20T05:14:53;17.40;99.90
3281;DHT22;1652;51.318;6.202;2023-07-20T05:17:20;17.50;99.90
3281;DHT22;1652;51.318;6.202;2023-07-20T05:22:18;17.40;99.90
3281;DHT22;1652;51.318;6.202;2023-07-20T05:24:45;17.40;99.90
3281;DHT22;1652;51.318;6.202;2023-07-20T05:27:11;17.50;99.90
3281;DHT22;1652;51.318;6.202;2023-07-20T05:29:44;17.50;99.90
3281;DHT22;1652;51.318;6.202;2023-07-20T05:32:11;17.70;99.90
3281;DHT22;1652;51.318;6.202;2023-07-20T05:34:38;17.60;99.90
3281;DHT22;1652;51.318;6.202;2023-07-20T05:37:05;17.70;99.90
3281;DHT22;1652;51.318;6.202;2023-07-20T05:39:33;18.00;99.90
3281;DHT22;1652;51.318;6.202;2023-07-20T05:42:00;18.60;99.90
3281;DHT22;1652;51.318;6.202;2023-07-20T05:44:26;19.70;99.90
3281;DHT22;1652;51.318;6.202;2023-07-20T05:46:53;20.50;99.90
3281;DHT22;1652;51.318;6.202;2023-07-20T05:49:24;21.10;99.90
3281;DHT22;1652;51.318;6.202;2023-07-20T05:51:51;21.70;99.90
3281;DHT22;1652;51.318;6.202;2023-07-20T05:54:18;22.50;99.90
3281;DHT22;1652;51.318;6.202;2023-07-20T05:56:46;22.70;99.90
3281;DHT22;1652;51.318;6.202;2023-07-20T05:59:13;22.10;99.90
3281;DHT22;1652;51.318;6.202;2023-07-20T06:01:40;21.30;99.90
3281;DHT22;1652;51.318;6.202;2023-07-20T06:04:07;21.10;99.90
3281;DHT22;1652;51.318;6.202;2023-07-20T06:06:34;21.30;99.90
3281;DHT22;1652;51.318;6.202;2023-07-20T06:09:01;22.30;99.90
3281;DHT22;1652;51.318;6.202;2023-07-20T06:11:34;22.80;99.90
3281;DHT22;1652;51.318;6.202;2023-07-20T06:14:01;22.80;99.90
3281;DHT22;1652;51.318;6.202;2023-07-20T06:16:28;22.10;99.90
3281;DHT22;1652;51.318;6.202;2023-07-20T06:18:55;21.10;99.90
3281;DHT22;1652;51.318;6.202;2023-07-20T06:21:22;20.50;99.90
3281;DHT22;1652;51.318;6.202;2023-07-20T06:23:49;20.20;99.90
3281;DHT22;1652;51.318;6.202;2023-07-20T06:26:16;20.00;99.90
3281;DHT22;1652;51.318;6.202;2023-07-20T06:28:43;20.20;99.90
3281;DHT22;1652;51.318;6.202;2023-07-20T06:31:10;20.10;99.90
3281;DHT22;1652;51.318;6.202;2023-07-20T06:33:38;19.90;99.90
3281;DHT22;1652;51.318;6.202;2023-07-20T06:36:05;20.00;99.90
3281;DHT22;1652;51.318;6.202;2023-07-20T06:38:32;21.40;99.90
3281;DHT22;1652;51.318;6.202;2023-07-20T06:40:58;22.80;99.90
3281;DHT22;1652;51.318;6.202;2023-07-20T06:43:46;22.80;99.90
3281;DHT22;1652;51.318;6.202;2023-07-20T06:46:15;22.80;99.90
3281;DHT22;1652;51.318;6.202;2023-07-20T06:48:42;23.40;99.90
3281;DHT22;1652;51.318;6.202;2023-07-20T06:51:12;24.20;99.90
3281;DHT22;1652;51.318;6.202;2023-07-20T06:53:38;24.20;99.90
3281;DHT22;1652;51.318;6.202;2023-07-20T06:56:05;23.50;99.90
3281;DHT22;1652;51.318;6.202;2023-07-20T06:58:32;22.90;99.90
3281;DHT22;1652;51.318;6.202;2023-07-20T07:01:04;22.20;99.90
3281;DHT22;1652;51.318;6.202;2023-07-20T07:03:31;21.50;99.90
3281;DHT22;1652;51.318;6.202;2023-07-20T07:06:17;21.20;99.90
3281;DHT22;1652;51.318;6.202;2023-07-20T07:08:44;21.60;99.90
3281;DHT22;1652;51.318;6.202;2023-07-20T07:11:11;23.20;99.90
3281;DHT22;1652;51.318;6.202;2023-07-20T07:13:38;24.70;99.90
3281;DHT22;1652;51.318;6.202;2023-07-20T07:16:05;25.40;99.90
3281;DHT22;1652;51.318;6.202;2023-07-20T07:18:35;26.70;99.90
3281;DHT22;1652;51.318;6.202;2023-07-20T07:21:02;25.80;99.90
3281;DHT22;1652;51.318;6.202;2023-07-20T07:23:29;24.30;99.90
3281;DHT22;1652;51.318;6.202;2023-07-20T07:25:56;23.40;99.90
3281;DHT22;1652;51.318;6.202;2023-07-20T07:28:23;23.40;99.90
3281;DHT22;1652;51.318;6.202;2023-07-20T07:30:50;23.90;99.90
3281;DHT22;1652;51.318;6.202;2023-07-20T07:33:17;24.20;99.90
3281;DHT22;1652;51.318;6.202;2023-07-20T07:35:44;24.90;99.90
3281;DHT22;1652;51.318;6.202;2023-07-20T07:38:11;25.40;99.90
3281;DHT22;1652;51.318;6.202;2023-07-20T07:40:58;26.10;99.90
3281;DHT22;1652;51.318;6.202;2023-07-20T07:43:26;26.80;99.90
3281;DHT22;1652;51.318;6.202;2023-07-20T07:45:54;27.50;99.90
3281;DHT22;1652;51.318;6.202;2023-07-20T07:48:21;28.20;99.90
3281;DHT22;1652;51.318;6.202;2023-07-20T07:50:48;27.90;99.90
3281;DHT22;1652;51.318;6.202;2023-07-20T07:53:16;26.80;99.90
3281;DHT22;1652;51.318;6.202;2023-07-20T07:55:44;27.00;99.90
3281;DHT22;1652;51.318;6.202;2023-07-20T07:58:11;27.80;99.90
3281;DHT22;1652;51.318;6.202;2023-07-20T08:00:39;28.60;99.90
3281;DHT22;1652;51.318;6.202;2023-07-20T08:03:09;28.90;99.90
3281;DHT22;1652;51.318;6.202;2023-07-20T08:05:36;29.10;99.90
3281;DHT22;1652;51.318;6.202;2023-07-20T08:08:03;29.20;99.90
3281;DHT22;1652;51.318;6.202;2023-07-20T08:10:33;29.40;99.90
3281;DHT22;1652;51.318;6.202;2023-07-20T08:12:59;29.30;99.90
3281;DHT22;1652;51.318;6.202;2023-07-20T08:15:26;28.50;99.90
3281;DHT22;1652;51.318;6.202;2023-07-20T08:17:53;28.00;99.90
3281;DHT22;1652;51.318;6.202;2023-07-20T08:20:20;26.80;99.90
3281;DHT22;1652;51.318;6.202;2023-07-20T08:22:54;26.00;99.90
3281;DHT22;1652;51.318;6.202;2023-07-20T08:25:22;26.60;99.90
3281;DHT22;1652;51.318;6.202;2023-07-20T08:27:49;27.10;99.90
3281;DHT22;1652;51.318;6.202;2023-07-20T08:30:16;28.20;99.90
3281;DHT22;1652;51.318;6.202;2023-07-20T08:32:43;28.90;99.90
3281;DHT22;1652;51.318;6.202;2023-07-20T08:35:10;28.60;99.90
3281;DHT22;1652;51.318;6.202;2023-07-20T08:37:41;28.60;99.90
3281;DHT22;1652;51.318;6.202;2023-07-20T08:40:08;28.10;99.90
3281;DHT22;1652;51.318;6.202;2023-07-20T08:42:37;28.20;99.90
3281;DHT22;1652;51.318;6.202;2023-07-20T08:45:06;27.90;99.90
3281;DHT22;1652;51.318;6.202;2023-07-20T08:47:35;27.50;99.90
3281;DHT22;1652;51.318;6.202;2023-07-20T08:50:03;27.10;99.90
3281;DHT22;1652;51.318;6.202;2023-07-20T08:52:34;27.10;99.90
3281;DHT22;1652;51.318;6.202;2023-07-20T08:55:01;27.20;99.90
3281;DHT22;1652;51.318;6.202;2023-07-20T08:57:33;27.40;99.90
3281;DHT22;1652;51.318;6.202;2023-07-20T09:00:03;27.80;99.90
3281;DHT22;1652;51.318;6.202;2023-07-20T09:02:39;27.80;99.90
3281;DHT22;1652;51.318;6.202;2023-07-20T09:05:08;28.00;99.90
3281;DHT22;1652;51.318;6.202;2023-07-20T09:07:41;28.10;99.90
3281;DHT22;1652;51.318;6.202;2023-07-20T09:10:08;28.10;99.90
3281;DHT22;1652;51.318;6.202;2023-07-20T09:12:39;27.90;99.90
3281;DHT22;1652;51.318;6.202;2023-07-20T09:15:08;27.70;99.90
3281;DHT22;1652;51.318;6.202;2023-07-20T09:17:35;26.60;99.90
3281;DHT22;1652;51.318;6.202;2023-07-20T09:20:07;25.40;99.90
3281;DHT22;1652;51.318;6.202;2023-07-20T09:22:35;24.50;99.90
3281;DHT22;1652;51.318;6.202;2023-07-20T09:25:15;23.80;99.90
3281;DHT22;1652;51.318;6.202;2023-07-20T09:27:44;24.10;99.90
3281;DHT22;1652;51.318;6.202;2023-07-20T09:30:13;23.90;99.90
3281;DHT22;1652;51.318;6.202;2023-07-20T09:32:46;23.50;99.90
3281;DHT22;1652;51.318;6.202;2023-07-20T09:35:16;23.60;99.90
3281;DHT22;1652;51.318;6.202;2023-07-20T09:37:50;23.60;99.90
3281;DHT22;1652;51.318;6.202;2023-07-20T09:40:41;24.80;99.90
3281;DHT22;1652;51.318;6.202;2023-07-20T09:43:11;25.90;99.90
3281;DHT22;1652;51.318;6.202;2023-07-20T09:45:42;26.80;99.90
3281;DHT22;1652;51.318;6.202;2023-07-20T09:48:11;26.50;99.90
3281;DHT22;1652;51.318;6.202;2023-07-20T09:50:49;26.70;99.90
3281;DHT22;1652;51.318;6.202;2023-07-20T09:53:17;26.60;99.90
3281;DHT22;1652;51.318;6.202;2023-07-20T09:55:46;26.10;99.90
3281;DHT22;1652;51.318;6.202;2023-07-20T09:58:15;26.10;99.90
3281;DHT22;1652;51.318;6.202;2023-07-20T10:00:43;25.70;99.90
3281;DHT22;1652;51.318;6.202;2023-07-20T10:03:18;25.60;99.90
3281;DHT22;1652;51.318;6.202;2023-07-20T10:05:51;25.20;99.90
3281;DHT22;1652;51.318;6.202;2023-07-20T10:08:19;24.40;99.90
3281;DHT22;1652;51.318;6.202;2023-07-20T10:10:49;24.60;99.90
3281;DHT22;1652;51.318;6.202;2023-07-20T10:13:18;24.40;99.90
3281;DHT22;1652;51.318;6.202;2023-07-20T10:15:48;24.50;99.90
3281;DHT22;1652;51.318;6.202;2023-07-20T10:18:29;24.10;99.90
3281;DHT22;1652;51.318;6.202;2023-07-20T10:20:59;23.90;99.90
3281;DHT22;1652;51.318;6.202;2023-07-20T10:23:30;23.90;99.90
3281;DHT22;1652;51.318;6.202;2023-07-20T10:25:57;23.80;99.90
3281;DHT22;1652;51.318;6.202;2023-07-20T10:28:26;24.10;99.90
3281;DHT22;1652;51.318;6.202;2023-07-20T10:30:54;24.30;99.90
3281;DHT22;1652;51.318;6.202;2023-07-20T10:33:21;24.70;99.90
3281;DHT22;1652;51.318;6.202;2023-07-20T10:38:20;24.90;99.90
3281;DHT22;1652;51.318;6.202;2023-07-20T10:40:56;24.70;99.90
3281;DHT22;1652;51.318;6.202;2023-07-20T10:43:23;24.60;99.90
3281;DHT22;1652;51.318;6.202;2023-07-20T10:45:53;24.50;99.90
3281;DHT22;1652;51.318;6.202;2023-07-20T10:48:22;24.00;99.90
3281;DHT22;1652;51.318;6.202;2023-07-20T10:51:19;23.60;99.90
3281;DHT22;1652;51.318;6.202;2023-07-20T10:53:49;23.30;99.90
3281;DHT22;1652;51.318;6.202;2023-07-20T10:56:23;22.90;99.90
3281;DHT22;1652;51.318;6.202;2023-07-20T10:58:59;22.80;99.90
3281;DHT22;1652;51.318;6.202;2023-07-20T11:01:36;22.70;99.90
3281;DHT22;1652;51.318;6.202;2023-07-20T11:04:08;22.80;99.90
3281;DHT22;1652;51.318;6.202;2023-07-20T11:06:35;22.90;99.90
3281;DHT22;1652;51.318;6.202;2023-07-20T11:09:12;23.00;99.90
3281;DHT22;1652;51.318;6.202;2023-07-20T11:11:44;22.80;99.90
3281;DHT22;1652;51.318;6.202;2023-07-20T11:14:25;23.10;99.90
3281;DHT22;1652;51.318;6.202;2023-07-20T11:16:52;23.50;99.90
3281;DHT22;1652;51.318;6.202;2023-07-20T11:19:21;23.70;99.90
3281;DHT22;1652;51.318;6.202;2023-07-20T11:21:56;24.00;99.90
3281;DHT22;1652;51.318;6.202;2023-07-20T11:24:30;24.20;99.90
3281;DHT22;1652;51.318;6.202;2023-07-20T11:26:57;24.50;99.90
3281;DHT22;1652;51.318;6.202;2023-07-20T11:29:25;24.70;99.90
3281;DHT22;1652;51.318;6.202;2023-07-20T11:31:56;24.90;99.90
3281;DHT22;1652;51.318;6.202;2023-07-20T11:34:24;25.10;99.90
3281;DHT22;1652;51.318;6.202;2023-07-20T11:36:51;25.10;99.90
3281;DHT22;1652;51.318;6.202;2023-07-20T11:39:22;25.40;99.90
3281;DHT22;1652;51.318;6.202;2023-07-20T11:41:56;25.50;99.90
3281;DHT22;1652;51.318;6.202;2023-07-20T11:44:26;25.60;99.90
3281;DHT22;1652;51.318;6.202;2023-07-20T11:47:08;25.50;99.90
3281;DHT22;1652;51.318;6.202;2023-07-20T11:49:42;25.40;99.90
3281;DHT22;1652;51.318;6.202;2023-07-20T11:52:11;25.00;99.90
3281;DHT22;1652;51.318;6.202;2023-07-20T11:54:40;24.60;99.90
3281;DHT22;1652;51.318;6.202;2023-07-20T11:57:19;24.10;99.90
3281;DHT22;1652;51.318;6.202;2023-07-20T11:59:56;23.90;99.90
3281;DHT22;1652;51.318;6.202;2023-07-20T12:02:28;23.60;99.90
3281;DHT22;1652;51.318;6.202;2023-07-20T12:04:56;23.50;99.90
3281;DHT22;1652;51.318;6.202;2023-07-20T12:07:25;23.40;99.90
3281;DHT22;1652;51.318;6.202;2023-07-20T12:10:08;23.60;99.90
3281;DHT22;1652;51.318;6.202;2023-07-20T12:12:41;23.60;99.90
3281;DHT22;1652;51.318;6.202;2023-07-20T12:15:16;23.70;99.90
3281;DHT22;1652;51.318;6.202;2023-07-20T12:17:50;23.50;99.90
3281;DHT22;1652;51.318;6.202;2023-07-20T12:20:26;23.60;99.90
3281;DHT22;1652;51.318;6.202;2023-07-20T12:22:58;23.60;99.90
3281;DHT22;1652;51.318;6.202;2023-07-20T12:25:42;23.60;99.90
3281;DHT22;1652;51.318;6.202;2023-07-20T12:30:39;23.90;99.90
3281;DHT22;1652;51.318;6.202;2023-07-20T12:33:06;23.60;99.90
3281;DHT22;1652;51.318;6.202;2023-07-20T12:35:34;23.40;99.90
3281;DHT22;1652;51.318;6.202;2023-07-20T12:38:01;23.10;99.90
3281;DHT22;1652;51.318;6.202;2023-07-20T12:40:28;23.30;99.90
3281;DHT22;1652;51.318;6.202;2023-07-20T12:42:55;23.10;99.90
3281;DHT22;1652;51.318;6.202;2023-07-20T12:45:22;23.00;99.90
3281;DHT22;1652;51.318;6.202;2023-07-20T12:47:49;23.00;99.90
3281;DHT22;1652;51.318;6.202;2023-07-20T12:50:16;22.90;99.90
3281;DHT22;1652;51.318;6.202;2023-07-20T12:52:43;23.10;99.90
3281;DHT22;1652;51.318;6.202;2023-07-20T12:55:10;23.10;99.90
3281;DHT22;1652;51.318;6.202;2023-07-20T12:57:38;23.00;99.90
3281;DHT22;1652;51.318;6.202;2023-07-20T13:00:07;23.00;99.90
3281;DHT22;1652;51.318;6.202;2023-07-20T13:02:38;23.00;99.90
3281;DHT22;1652;51.318;6.202;2023-07-20T13:05:05;23.20;99.90
3281;DHT22;1652;51.318;6.202;2023-07-20T13:07:37;23.40;99.90
3281;DHT22;1652;51.318;6.202;2023-07-20T13:10:07;23.60;99.90
3281;DHT22;1652;51.318;6.202;2023-07-20T13:12:36;23.50;99.90
3281;DHT22;1652;51.318;6.202;2023-07-20T13:15:04;23.50;99.90
3281;DHT22;1652;51.318;6.202;2023-07-20T13:17:35;23.70;99.90
3281;DHT22;1652;51.318;6.202;2023-07-20T13:20:03;23.80;99.90
3281;DHT22;1652;51.318;6.202;2023-07-20T13:22:34;23.80;99.90
3281;DHT22;1652;51.318;6.202;2023-07-20T13:25:01;24.10;99.90
3281;DHT22;1652;51.318;6.202;2023-07-20T13:27:29;24.00;99.90
3281;DHT22;1652;51.318;6.202;2023-07-20T13:29:59;24.20;99.90
3281;DHT22;1652;51.318;6.202;2023-07-20T13:32:29;24.20;99.90
3281;DHT22;1652;51.318;6.202;2023-07-20T13:35:00;24.00;99.90
3281;DHT22;1652;51.318;6.202;2023-07-20T13:37:27;23.90;99.90
3281;DHT22;1652;51.318;6.202;2023-07-20T13:39:55;24.00;99.90
3281;DHT22;1652;51.318;6.202;2023-07-20T13:42:23;24.20;99.90
3281;DHT22;1652;51.318;6.202;2023-07-20T13:44:50;24.40;99.90
3281;DHT22;1652;51.318;6.202;2023-07-20T13:47:17;24.30;99.90
3281;DHT22;1652;51.318;6.202;2023-07-20T13:49:47;24.40;99.90
3281;DHT22;1652;51.318;6.202;2023-07-20T13:52:15;24.60;99.90
3281;DHT22;1652;51.318;6.202;2023-07-20T13:54:45;24.50;99.90
3281;DHT22;1652;51.318;6.202;2023-07-20T13:57:17;24.20;99.90
3281;DHT22;1652;51.318;6.202;2023-07-20T13:59:44;24.10;99.90
3281;DHT22;1652;51.318;6.202;2023-07-20T14:02:14;24.10;99.90
3281;DHT22;1652;51.318;6.202;2023-07-20T14:04:44;24.10;99.90
3281;DHT22;1652;51.318;6.202;2023-07-20T14:07:14;24.00;99.90
3281;DHT22;1652;51.318;6.202;2023-07-20T14:09:44;24.00;99.90
3281;DHT22;1652;51.318;6.202;2023-07-20T14:12:13;23.90;99.90
3281;DHT22;1652;51.318;6.202;2023-07-20T14:14:44;24.00;99.90
3281;DHT22;1652;51.318;6.202;2023-07-20T14:17:10;23.90;99.90
3281;DHT22;1652;51.318;6.202;2023-07-20T14:19:38;23.90;99.90
3281;DHT22;1652;51.318;6.202;2023-07-20T14:22:05;24.00;99.90
3281;DHT22;1652;51.318;6.202;2023-07-20T14:24:37;24.10;99.90
3281;DHT22;1652;51.318;6.202;2023-07-20T14:27:04;24.20;99.90
3281;DHT22;1652;51.318;6.202;2023-07-20T14:29:31;24.30;99.90
3281;DHT22;1652;51.318;6.202;2023-07-20T14:31:59;24.40;99.90
3281;DHT22;1652;51.318;6.202;2023-07-20T14:34:26;24.50;99.90
3281;DHT22;1652;51.318;6.202;2023-07-20T14:36:53;24.60;99.90
3281;DHT22;1652;51.318;6.202;2023-07-20T14:39:20;24.60;99.90
3281;DHT22;1652;51.318;6.202;2023-07-20T14:41:49;24.70;99.90
3281;DHT22;1652;51.318;6.202;2023-07-20T14:44:16;25.00;99.90
3281;DHT22;1652;51.318;6.202;2023-07-20T14:46:43;24.90;99.90
3281;DHT22;1652;51.318;6.202;2023-07-20T14:49:28;24.70;99.90
3281;DHT22;1652;51.318;6.202;2023-07-20T14:51:55;24.50;99.90
3281;DHT22;1652;51.318;6.202;2023-07-20T14:54:25;24.40;99.90
3281;DHT22;1652;51.318;6.202;2023-07-20T14:56:53;24.20;99.90
3281;DHT22;1652;51.318;6.202;2023-07-20T14:59:20;23.90;99.90
3281;DHT22;1652;51.318;6.202;2023-07-20T15:01:47;23.80;99.90
3281;DHT22;1652;51.318;6.202;2023-07-20T15:04:14;23.70;99.90
3281;DHT22;1652;51.318;6.202;2023-07-20T15:06:42;23.70;99.90
3281;DHT22;1652;51.318;6.202;2023-07-20T15:09:09;23.80;99.90
3281;DHT22;1652;51.318;6.202;2023-07-20T15:11:36;23.80;99.90
3281;DHT22;1652;51.318;6.202;2023-07-20T15:14:03;23.90;99.90
3281;DHT22;1652;51.318;6.202;2023-07-20T15:16:30;24.10;99.90
3281;DHT22;1652;51.318;6.202;2023-07-20T15:18:57;24.10;99.90
3281;DHT22;1652;51.318;6.202;2023-07-20T15:21:24;24.20;99.90
3281;DHT22;1652;51.318;6.202;2023-07-20T15:23:57;24.20;99.90
3281;DHT22;1652;51.318;6.202;2023-07-20T15:26:24;24.20;99.90
3281;DHT22;1652;51.318;6.202;2023-07-20T15:28:52;24.40;99.90
3281;DHT22;1652;51.318;6.202;2023-07-20T15:31:19;24.40;99.90
3281;DHT22;1652;51.318;6.202;2023-07-20T15:34:06;24.40;99.90
3281;DHT22;1652;51.318;6.202;2023-07-20T15:36:33;24.20;99.90
3281;DHT22;1652;51.318;6.202;2023-07-20T15:39:00;24.10;99.90
3281;DHT22;1652;51.318;6.202;2023-07-20T15:41:27;24.10;99.90
3281;DHT22;1652;51.318;6.202;2023-07-20T15:43:56;24.20;99.90
3281;DHT22;1652;51.318;6.202;2023-07-20T15:48:50;24.20;99.90
3281;DHT22;1652;51.318;6.202;2023-07-20T15:51:18;24.10;99.90
3281;DHT22;1652;51.318;6.202;2023-07-20T15:53:45;24.20;99.90
3281;DHT22;1652;51.318;6.202;2023-07-20T15:56:14;24.20;99.90
3281;DHT22;1652;51.318;6.202;2023-07-20T15:58:41;24.20;99.90
3281;DHT22;1652;51.318;6.202;2023-07-20T16:01:07;24.00;99.90
3281;DHT22;1652;51.318;6.202;2023-07-20T16:03:35;24.00;99.90
3281;DHT22;1652;51.318;6.202;2023-07-20T16:06:04;24.10;99.90
3281;DHT22;1652;51.318;6.202;2023-07-20T16:08:31;24.00;99.90
3281;DHT22;1652;51.318;6.202;2023-07-20T16:10:58;24.00;99.90
3281;DHT22;1652;51.318;6.202;2023-07-20T16:13:26;24.00;99.90
3281;DHT22;1652;51.318;6.202;2023-07-20T16:15:54;24.00;99.90
3281;DHT22;1652;51.318;6.202;2023-07-20T16:18:21;24.10;99.90
3281;DHT22;1652;51.318;6.202;2023-07-20T16:20:48;24.10;99.90
3281;DHT22;1652;51.318;6.202;2023-07-20T16:23:15;24.10;99.90
3281;DHT22;1652;51.318;6.202;2023-07-20T16:25:46;24.00;99.90
3281;DHT22;1652;51.318;6.202;2023-07-20T16:28:14;23.90;99.90
3281;DHT22;1652;51.318;6.202;2023-07-20T16:30:41;23.80;99.90
3281;DHT22;1652;51.318;6.202;2023-07-20T16:33:07;23.80;99.90
3281;DHT22;1652;51.318;6.202;2023-07-20T16:35:38;23.60;99.90